createdAt,value
2022-09-24T00:03:11.917Z,0.5
2022-09-24T00:05:04.455Z,0.3
2022-09-24T00:10:05.002Z,0.5
2022-09-24T00:15:05.746Z,0.4
2022-09-24T00:20:06.198Z,0.3
2022-09-24T00:25:06.743Z,0.4
2022-09-24T00:30:07.351Z,0.5
2022-09-24T00:35:07.896Z,0.3
2022-09-24T00:40:09.734Z,0.7
2022-09-24T00:45:09.100Z,0.3
2022-09-24T00:50:09.595Z,0.3
2022-09-24T00:55:10.313Z,0.3
2022-09-24T01:00:10.734Z,0.3
2022-09-24T01:05:11.462Z,0.4
2022-09-24T01:10:11.942Z,0.4
2022-09-24T01:15:12.682Z,0.3
2022-09-24T01:20:13.079Z,0.1
2022-09-24T01:25:13.644Z,0.3
2022-09-24T01:30:14.222Z,0.2
2022-09-24T01:35:14.839Z,0.3
2022-09-24T01:40:15.441Z,0.4
2022-09-24T01:45:15.903Z,0.7
2022-09-24T01:50:16.564Z,0.6
2022-09-24T01:55:16.964Z,0.5
2022-09-24T02:00:17.560Z,0.5
2022-09-24T02:05:18.311Z,0.3
2022-09-24T02:10:18.732Z,0.3
2022-09-24T02:15:19.403Z,0.4
2022-09-24T02:20:19.925Z,0.4
2022-09-24T02:25:20.552Z,0.5
2022-09-24T02:30:20.991Z,0.3
2022-09-24T02:35:21.764Z,0.5
2022-09-24T02:40:22.220Z,0.3
2022-09-24T02:45:22.702Z,0.2
2022-09-24T02:50:23.263Z,0.3
2022-09-24T02:55:23.739Z,0.3
2022-09-24T03:00:24.465Z,0.2
2022-09-24T03:05:25.103Z,0.4
2022-09-24T03:10:25.647Z,0.3
2022-09-24T03:15:26.113Z,0.4
2022-09-24T03:20:26.848Z,0.3
2022-09-24T03:25:27.394Z,0.5
2022-09-24T03:30:27.885Z,0.5
2022-09-24T03:35:28.543Z,0.4
2022-09-24T03:40:29.033Z,0.3
2022-09-24T03:45:29.590Z,0.4
2022-09-24T03:50:30.249Z,0.3
2022-09-24T03:55:30.733Z,0.2
2022-09-24T04:00:31.294Z,0.3
2022-09-24T04:05:32.110Z,0.2
2022-09-24T04:10:32.501Z,0.3
2022-09-24T04:15:32.903Z,0.3
2022-09-24T04:20:33.500Z,0.2
2022-09-24T04:25:33.944Z,0.4
2022-09-24T04:30:34.528Z,0.4
2022-09-24T04:35:36.069Z,0.5
2022-09-24T04:40:35.705Z,0.5
2022-09-24T04:45:36.216Z,0.3
2022-09-24T04:50:37.669Z,0.3
2022-09-24T04:55:37.431Z,0.4
2022-09-24T05:00:37.943Z,0.3
2022-09-24T05:05:38.962Z,0.2
2022-09-24T05:10:39.322Z,0.4
2022-09-24T05:15:43.129Z,0.4
2022-09-24T05:20:40.468Z,0.2
2022-09-24T05:25:40.962Z,0.4
2022-09-24T05:30:41.560Z,0.3
2022-09-24T05:35:42.117Z,0.2
2022-09-24T05:40:42.704Z,0.3
2022-09-24T05:45:43.242Z,0.3
2022-09-24T05:50:43.895Z,0.2
2022-09-24T05:55:44.454Z,0.4
2022-09-24T06:00:45.006Z,0.3
2022-09-24T06:05:46.552Z,0.4
2022-09-24T06:10:46.199Z,0.4
2022-09-24T06:15:46.955Z,0.5
2022-09-24T06:20:47.476Z,0.3
2022-09-24T06:25:47.980Z,0.2
2022-09-24T06:30:48.564Z,0.3
2022-09-24T06:35:49.303Z,0.3
2022-09-24T06:40:49.752Z,0.3
2022-09-24T06:45:50.254Z,0.3
2022-09-24T06:50:51.029Z,0.3
2022-09-24T06:55:51.470Z,0.3
2022-09-24T07:00:52.047Z,0.4
2022-09-24T07:05:52.739Z,0.2
2022-09-24T07:10:53.275Z,0.4
2022-09-24T07:15:53.965Z,0.3
2022-09-24T07:20:54.541Z,0.4
2022-09-24T07:25:55.016Z,0.4
2022-09-24T07:30:55.762Z,0.4
2022-09-24T07:35:56.384Z,0.3
2022-09-24T07:40:56.895Z,0.4
2022-09-24T07:45:57.514Z,0.3
2022-09-24T07:50:58.090Z,0.4
2022-09-24T07:55:58.629Z,0.4
2022-09-24T08:00:59.214Z,0.4
2022-09-24T08:05:59.925Z,0.3
2022-09-24T08:11:00.496Z,0.3
2022-09-24T08:16:00.944Z,0.4
2022-09-24T08:21:01.637Z,0.5
2022-09-24T08:26:02.104Z,0.4
2022-09-24T08:31:02.748Z,0.3
2022-09-24T08:36:03.399Z,0.6
2022-09-24T08:41:03.889Z,0.6
2022-09-24T08:46:04.545Z,0.4
2022-09-24T08:51:06.526Z,0.7
2022-09-24T08:56:05.682Z,1.0
2022-09-24T09:01:06.280Z,0.7
2022-09-24T09:06:06.883Z,0.9
2022-09-24T09:11:07.512Z,0.8
2022-09-24T09:16:08.273Z,0.6
2022-09-24T09:21:08.835Z,0.8
2022-09-24T09:26:09.537Z,0.7
2022-09-24T09:31:10.043Z,1.4
2022-09-24T09:36:10.743Z,1.0
2022-09-24T09:41:11.127Z,1.2
2022-09-24T09:46:11.896Z,1.6
2022-09-24T09:51:12.453Z,0.9
2022-09-24T09:56:13.210Z,1.0
2022-09-24T10:01:13.901Z,1.0
2022-09-24T10:06:14.508Z,1.1
2022-09-24T10:11:15.183Z,1.2
2022-09-24T10:16:15.821Z,1.4
2022-09-24T10:21:16.342Z,1.0
2022-09-24T10:26:17.135Z,1.2
2022-09-24T10:31:17.718Z,1.4
2022-09-24T10:36:18.263Z,1.1
2022-09-24T10:41:18.836Z,1.2
2022-09-24T10:46:19.624Z,1.4
2022-09-24T10:51:23.118Z,1.2
2022-09-24T10:56:20.685Z,1.0
2022-09-24T11:01:21.437Z,0.9
2022-09-24T11:06:22.204Z,1.7
2022-09-24T11:11:22.637Z,1.0
2022-09-24T11:16:23.221Z,1.1
2022-09-24T11:21:23.893Z,1.2
2022-09-24T11:26:24.455Z,1.1
2022-09-24T11:31:25.180Z,1.3
2022-09-24T11:36:26.488Z,1.3
2022-09-24T11:41:26.298Z,1.0
2022-09-24T11:46:26.954Z,1.1
2022-09-24T11:51:27.775Z,0.9
2022-09-24T11:56:28.220Z,1.2
2022-09-24T12:01:28.979Z,1.4
2022-09-24T12:06:29.749Z,1.3
2022-09-24T12:11:30.245Z,1.0
2022-09-24T12:16:30.907Z,1.7
2022-09-24T12:21:32.832Z,1.5
2022-09-24T12:26:32.185Z,1.0
2022-09-24T12:31:33.025Z,1.4
2022-09-24T12:36:33.619Z,1.3
2022-09-24T12:41:34.097Z,1.1
2022-09-24T12:46:34.750Z,1.3
2022-09-24T12:51:35.527Z,1.6
2022-09-24T12:56:36.006Z,1.5
2022-09-24T13:01:36.707Z,1.6
2022-09-24T13:06:37.290Z,1.7
2022-09-24T13:11:37.945Z,1.8
2022-09-24T13:16:38.731Z,1.3
2022-09-24T13:21:39.738Z,1.9
2022-09-24T13:26:39.791Z,1.7
2022-09-24T13:31:40.584Z,1.6
2022-09-24T13:36:41.236Z,1.8
2022-09-24T13:41:41.852Z,1.5
2022-09-24T13:46:42.736Z,1.7
2022-09-24T13:51:44.671Z,1.8
2022-09-24T13:56:43.729Z,2.0
2022-09-24T14:01:44.438Z,2.2
2022-09-24T14:06:44.930Z,2.3
2022-09-24T14:11:45.612Z,1.9
2022-09-24T14:16:48.869Z,2.4
2022-09-24T14:21:46.950Z,2.4
2022-09-24T14:26:48.864Z,2.1
2022-09-24T14:31:48.200Z,1.8
2022-09-24T14:36:48.778Z,2.4
2022-09-24T14:41:49.465Z,1.9
2022-09-24T14:46:50.413Z,2.0
2022-09-24T14:51:50.785Z,2.2
2022-09-24T14:56:51.477Z,2.0
2022-09-24T15:01:52.281Z,2.2
2022-09-24T15:06:52.814Z,2.1
2022-09-24T15:11:53.801Z,1.9
2022-09-24T15:16:54.108Z,1.8
2022-09-24T15:21:54.915Z,1.7
2022-09-24T15:26:55.608Z,1.6
2022-09-24T15:31:56.300Z,1.5
2022-09-24T15:36:56.867Z,1.7
2022-09-24T15:41:57.844Z,1.8
2022-09-24T15:46:58.351Z,2.2
2022-09-24T15:51:58.760Z,1.9
2022-09-24T15:56:59.538Z,1.5
2022-09-24T16:02:00.280Z,1.4
2022-09-24T16:07:00.894Z,1.5
2022-09-24T16:12:01.843Z,1.4
2022-09-24T16:17:02.372Z,1.8
2022-09-24T16:22:02.960Z,3.3
2022-09-24T16:27:03.605Z,5.4
2022-09-24T16:32:04.001Z,6.3
2022-09-24T16:37:04.888Z,10.3
2022-09-24T16:42:05.595Z,6.6
2022-09-24T16:47:06.104Z,4.3
2022-09-24T16:52:06.594Z,2.5
2022-09-24T16:57:07.346Z,2.1
2022-09-24T17:02:08.618Z,2.0
2022-09-24T17:07:09.071Z,1.8
2022-09-24T17:12:09.699Z,2.4
2022-09-24T17:17:10.037Z,2.2
2022-09-24T17:22:10.728Z,2.2
2022-09-24T17:27:11.506Z,2.0
2022-09-24T17:32:12.148Z,1.7
2022-09-24T17:37:12.874Z,2.0
2022-09-24T17:42:13.805Z,1.9
2022-09-24T17:47:14.545Z,1.7
2022-09-24T17:52:14.818Z,2.1
2022-09-24T17:57:15.621Z,2.4
2022-09-24T18:02:16.163Z,1.8
2022-09-24T18:07:16.654Z,2.2
2022-09-24T18:12:17.597Z,2.1
2022-09-24T18:17:18.073Z,1.8
2022-09-24T18:22:20.038Z,2.0
2022-09-24T18:27:20.601Z,2.5
2022-09-24T18:32:20.192Z,2.2
2022-09-24T18:37:20.962Z,1.7
2022-09-24T18:42:21.826Z,1.7
2022-09-24T18:47:21.964Z,1.7
2022-09-24T18:52:22.852Z,2.1
2022-09-24T18:57:25.033Z,1.7
2022-09-24T19:02:24.205Z,2.7
2022-09-24T19:07:24.795Z,1.7
2022-09-24T19:12:25.332Z,1.7
2022-09-24T19:17:25.885Z,2.0
2022-09-24T19:22:26.679Z,2.1
2022-09-24T19:27:27.462Z,1.6
2022-09-24T19:32:27.809Z,1.5
2022-09-24T19:37:28.470Z,1.5
2022-09-24T19:42:30.564Z,1.5
2022-09-24T19:47:29.885Z,1.8
2022-09-24T19:52:30.651Z,1.2
2022-09-24T19:57:31.070Z,1.2
2022-09-24T20:02:31.888Z,1.2
2022-09-24T20:07:32.286Z,1.1
2022-09-24T20:12:32.932Z,1.1
2022-09-24T20:17:33.662Z,0.8
2022-09-24T20:22:34.027Z,1.1
2022-09-24T20:27:34.972Z,1.0
2022-09-24T20:32:35.596Z,1.4
2022-09-24T20:37:36.196Z,1.5
2022-09-24T20:42:36.618Z,1.1
2022-09-24T20:47:37.400Z,1.3
2022-09-24T20:52:37.875Z,1.5
2022-09-24T20:57:38.786Z,1.0
2022-09-24T21:02:41.292Z,1.5
2022-09-24T21:07:39.885Z,1.2
2022-09-24T21:12:40.707Z,1.4
2022-09-24T21:17:41.079Z,1.2
2022-09-24T21:22:41.883Z,1.4
2022-09-24T21:27:42.514Z,1.2
2022-09-24T21:32:42.906Z,1.1
2022-09-24T21:37:43.684Z,1.1
2022-09-24T21:42:44.158Z,1.1
2022-09-24T21:47:44.716Z,0.9
2022-09-24T21:52:45.378Z,0.9
2022-09-24T21:57:45.909Z,0.9
2022-09-24T22:02:46.661Z,0.9
2022-09-24T22:07:47.189Z,0.9
2022-09-24T22:12:47.884Z,0.7
2022-09-24T22:17:48.500Z,0.9
2022-09-24T22:22:49.084Z,0.7
2022-09-24T22:27:49.906Z,0.8
2022-09-24T22:32:50.433Z,0.7
2022-09-24T22:37:51.084Z,0.9
2022-09-24T22:42:51.627Z,0.7
2022-09-24T22:47:52.396Z,0.5
2022-09-24T22:52:52.964Z,0.8
2022-09-24T22:57:53.603Z,0.7
2022-09-24T23:02:54.249Z,0.6
2022-09-24T23:07:54.910Z,0.7
2022-09-24T23:12:55.591Z,0.6
2022-09-24T23:17:56.184Z,0.6
2022-09-24T23:22:57.199Z,0.7
2022-09-24T23:27:57.523Z,0.5
2022-09-24T23:32:58.130Z,0.4
2022-09-24T23:37:58.897Z,0.5
2022-09-24T23:42:59.442Z,0.6
2022-09-24T23:48:00.099Z,0.8
2022-09-24T23:53:01.072Z,0.8
2022-09-24T23:58:01.529Z,0.6
